sensor_id;sensor_type;location;lat;lon;timestamp;pressure;altitude;pressure_sealevel;temperature
69545;BMP180;56766;52.260;20.746;2022-07-04T00:01:42;100667.00;;;17.70
69545;BMP180;56766;52.260;20.746;2022-07-04T00:04:08;100666.40;;;17.70
69545;BMP180;56766;52.260;20.746;2022-07-04T00:06:35;100669.20;;;17.60
69545;BMP180;56766;52.260;20.746;2022-07-04T00:09:02;100672.20;;;17.60
69545;BMP180;56766;52.260;20.746;2022-07-04T00:11:28;100667.00;;;17.60
69545;BMP180;56766;52.260;20.746;2022-07-04T00:13:55;100667.00;;;17.60
69545;BMP180;56766;52.260;20.746;2022-07-04T00:16:22;100663.80;;;17.70
69545;BMP180;56766;52.260;20.746;2022-07-04T00:18:48;100659.40;;;17.70
69545;BMP180;56766;52.260;20.746;2022-07-04T00:21:15;100662.40;;;17.70
69545;BMP180;56766;52.260;20.746;2022-07-04T00:23:41;100655.20;;;17.60
69545;BMP180;56766;52.260;20.746;2022-07-04T00:26:08;100657.00;;;17.60
69545;BMP180;56766;52.260;20.746;2022-07-04T00:28:34;100656.20;;;17.60
69545;BMP180;56766;52.260;20.746;2022-07-04T00:31:01;100649.60;;;17.60
69545;BMP180;56766;52.260;20.746;2022-07-04T00:33:28;100652.40;;;17.60
69545;BMP180;56766;52.260;20.746;2022-07-04T00:35:54;100646.60;;;17.60
69545;BMP180;56766;52.260;20.746;2022-07-04T00:38:21;100643.80;;;17.50
69545;BMP180;56766;52.260;20.746;2022-07-04T00:40:47;100642.00;;;17.50
69545;BMP180;56766;52.260;20.746;2022-07-04T00:43:23;100643.60;;;17.50
69545;BMP180;56766;52.260;20.746;2022-07-04T00:45:51;100641.40;;;17.50
69545;BMP180;56766;52.260;20.746;2022-07-04T00:48:18;100641.20;;;17.50
69545;BMP180;56766;52.260;20.746;2022-07-04T00:50:46;100639.80;;;17.50
69545;BMP180;56766;52.260;20.746;2022-07-04T00:53:15;100636.60;;;17.50
69545;BMP180;56766;52.260;20.746;2022-07-04T00:55:45;100636.80;;;17.42
69545;BMP180;56766;52.260;20.746;2022-07-04T00:58:13;100635.60;;;17.40
69545;BMP180;56766;52.260;20.746;2022-07-04T01:00:40;100631.20;;;17.30
69545;BMP180;56766;52.260;20.746;2022-07-04T01:03:07;100632.80;;;17.30
69545;BMP180;56766;52.260;20.746;2022-07-04T01:05:34;100631.20;;;17.30
69545;BMP180;56766;52.260;20.746;2022-07-04T01:08:01;100627.60;;;17.30
69545;BMP180;56766;52.260;20.746;2022-07-04T01:10:28;100622.80;;;17.30
69545;BMP180;56766;52.260;20.746;2022-07-04T01:12:55;100623.00;;;17.30
69545;BMP180;56766;52.260;20.746;2022-07-04T01:15:22;100621.80;;;17.30
69545;BMP180;56766;52.260;20.746;2022-07-04T01:17:49;100623.60;;;17.28
69545;BMP180;56766;52.260;20.746;2022-07-04T01:20:16;100618.20;;;17.20
69545;BMP180;56766;52.260;20.746;2022-07-04T01:22:44;100619.40;;;17.12
69545;BMP180;56766;52.260;20.746;2022-07-04T01:25:10;100621.60;;;17.10
69545;BMP180;56766;52.260;20.746;2022-07-04T01:27:37;100621.40;;;17.10
69545;BMP180;56766;52.260;20.746;2022-07-04T01:30:05;100622.40;;;17.14
69545;BMP180;56766;52.260;20.746;2022-07-04T01:32:31;100623.00;;;17.10
69545;BMP180;56766;52.260;20.746;2022-07-04T01:34:58;100625.20;;;17.10
69545;BMP180;56766;52.260;20.746;2022-07-04T01:37:25;100629.00;;;17.10
69545;BMP180;56766;52.260;20.746;2022-07-04T01:39:51;100631.40;;;17.04
69545;BMP180;56766;52.260;20.746;2022-07-04T01:42:18;100631.60;;;17.00
69545;BMP180;56766;52.260;20.746;2022-07-04T01:44:44;100631.00;;;16.98
69545;BMP180;56766;52.260;20.746;2022-07-04T01:47:11;100626.60;;;16.90
69545;BMP180;56766;52.260;20.746;2022-07-04T01:49:38;100629.00;;;16.90
69545;BMP180;56766;52.260;20.746;2022-07-04T01:52:05;100627.20;;;16.90
69545;BMP180;56766;52.260;20.746;2022-07-04T01:54:31;100622.20;;;16.86
69545;BMP180;56766;52.260;20.746;2022-07-04T01:56:58;100622.20;;;16.80
69545;BMP180;56766;52.260;20.746;2022-07-04T01:59:24;100621.20;;;16.80
69545;BMP180;56766;52.260;20.746;2022-07-04T02:02:11;100622.00;;;16.80
69545;BMP180;56766;52.260;20.746;2022-07-04T02:04:38;100624.00;;;16.70
69545;BMP180;56766;52.260;20.746;2022-07-04T02:07:04;100628.60;;;16.70
69545;BMP180;56766;52.260;20.746;2022-07-04T02:09:31;100623.40;;;16.78
69545;BMP180;56766;52.260;20.746;2022-07-04T02:11:58;100626.20;;;16.80
69545;BMP180;56766;52.260;20.746;2022-07-04T02:15:21;100624.80;;;16.78
69545;BMP180;56766;52.260;20.746;2022-07-04T02:17:47;100625.40;;;16.70
69545;BMP180;56766;52.260;20.746;2022-07-04T02:20:14;100621.60;;;16.70
69545;BMP180;56766;52.260;20.746;2022-07-04T02:22:41;100626.20;;;16.70
69545;BMP180;56766;52.260;20.746;2022-07-04T02:25:08;100622.60;;;16.70
69545;BMP180;56766;52.260;20.746;2022-07-04T02:27:34;100627.00;;;16.70
69545;BMP180;56766;52.260;20.746;2022-07-04T02:30:01;100623.40;;;16.70
69545;BMP180;56766;52.260;20.746;2022-07-04T02:32:28;100623.20;;;16.80
69545;BMP180;56766;52.260;20.746;2022-07-04T02:34:55;100627.40;;;16.80
69545;BMP180;56766;52.260;20.746;2022-07-04T02:37:22;100627.60;;;16.90
69545;BMP180;56766;52.260;20.746;2022-07-04T02:39:48;100622.40;;;16.90
69545;BMP180;56766;52.260;20.746;2022-07-04T02:42:15;100621.00;;;16.90
69545;BMP180;56766;52.260;20.746;2022-07-04T02:44:42;100621.80;;;16.90
69545;BMP180;56766;52.260;20.746;2022-07-04T02:47:10;100622.20;;;16.80
69545;BMP180;56766;52.260;20.746;2022-07-04T02:49:37;100620.60;;;16.90
69545;BMP180;56766;52.260;20.746;2022-07-04T02:52:04;100619.40;;;16.90
69545;BMP180;56766;52.260;20.746;2022-07-04T02:54:31;100617.20;;;16.90
69545;BMP180;56766;52.260;20.746;2022-07-04T02:56:57;100620.20;;;16.90
69545;BMP180;56766;52.260;20.746;2022-07-04T02:59:24;100620.00;;;16.90
69545;BMP180;56766;52.260;20.746;2022-07-04T03:01:50;100618.20;;;16.90
69545;BMP180;56766;52.260;20.746;2022-07-04T03:04:17;100617.40;;;16.90
69545;BMP180;56766;52.260;20.746;2022-07-04T03:06:44;100615.40;;;16.90
69545;BMP180;56766;52.260;20.746;2022-07-04T03:09:10;100627.20;;;16.90
69545;BMP180;56766;52.260;20.746;2022-07-04T03:11:37;100624.80;;;17.00
69545;BMP180;56766;52.260;20.746;2022-07-04T03:14:03;100630.00;;;17.10
69545;BMP180;56766;52.260;20.746;2022-07-04T03:16:30;100629.00;;;17.22
69545;BMP180;56766;52.260;20.746;2022-07-04T03:18:57;100633.20;;;17.30
69545;BMP180;56766;52.260;20.746;2022-07-04T03:21:23;100639.40;;;17.40
69545;BMP180;56766;52.260;20.746;2022-07-04T03:23:50;100638.80;;;17.40
69545;BMP180;56766;52.260;20.746;2022-07-04T03:26:29;100637.40;;;17.50
69545;BMP180;56766;52.260;20.746;2022-07-04T03:28:59;100640.40;;;17.60
69545;BMP180;56766;52.260;20.746;2022-07-04T03:31:28;100641.80;;;17.80
69545;BMP180;56766;52.260;20.746;2022-07-04T03:33:55;100638.60;;;18.46
69545;BMP180;56766;52.260;20.746;2022-07-04T03:36:21;100640.00;;;19.20
69545;BMP180;56766;52.260;20.746;2022-07-04T03:38:48;100641.80;;;19.96
69545;BMP180;56766;52.260;20.746;2022-07-04T03:41:15;100640.60;;;20.60
69545;BMP180;56766;52.260;20.746;2022-07-04T03:43:42;100641.40;;;21.16
69545;BMP180;56766;52.260;20.746;2022-07-04T03:46:08;100643.40;;;21.66
69545;BMP180;56766;52.260;20.746;2022-07-04T03:48:35;100644.60;;;22.10
69545;BMP180;56766;52.260;20.746;2022-07-04T03:51:02;100635.80;;;22.62
69545;BMP180;56766;52.260;20.746;2022-07-04T03:53:29;100639.00;;;23.00
69545;BMP180;56766;52.260;20.746;2022-07-04T03:55:55;100631.40;;;23.10
69545;BMP180;56766;52.260;20.746;2022-07-04T03:58:22;100632.60;;;22.90
69545;BMP180;56766;52.260;20.746;2022-07-04T04:00:49;100628.80;;;22.80
69545;BMP180;56766;52.260;20.746;2022-07-04T04:03:15;100625.00;;;22.66
69545;BMP180;56766;52.260;20.746;2022-07-04T04:06:22;100628.20;;;22.50
69545;BMP180;56766;52.260;20.746;2022-07-04T04:08:49;100629.20;;;22.40
69545;BMP180;56766;52.260;20.746;2022-07-04T04:11:15;100626.00;;;22.20
69545;BMP180;56766;52.260;20.746;2022-07-04T04:13:43;100629.80;;;22.20
69545;BMP180;56766;52.260;20.746;2022-07-04T04:16:10;100623.00;;;22.10
69545;BMP180;56766;52.260;20.746;2022-07-04T04:18:36;100623.20;;;22.00
69545;BMP180;56766;52.260;20.746;2022-07-04T04:21:04;100619.40;;;22.00
69545;BMP180;56766;52.260;20.746;2022-07-04T04:23:31;100624.20;;;22.20
69545;BMP180;56766;52.260;20.746;2022-07-04T04:25:58;100627.80;;;22.60
69545;BMP180;56766;52.260;20.746;2022-07-04T04:28:25;100626.40;;;22.84
69545;BMP180;56766;52.260;20.746;2022-07-04T04:30:51;100621.80;;;23.14
69545;BMP180;56766;52.260;20.746;2022-07-04T04:33:18;100624.80;;;23.40
69545;BMP180;56766;52.260;20.746;2022-07-04T04:35:45;100619.60;;;23.70
69545;BMP180;56766;52.260;20.746;2022-07-04T04:38:11;100622.00;;;24.00
69545;BMP180;56766;52.260;20.746;2022-07-04T04:40:38;100618.60;;;24.30
69545;BMP180;56766;52.260;20.746;2022-07-04T04:43:04;100625.00;;;24.52
69545;BMP180;56766;52.260;20.746;2022-07-04T04:45:31;100621.00;;;24.80
69545;BMP180;56766;52.260;20.746;2022-07-04T04:47:58;100620.60;;;25.06
69545;BMP180;56766;52.260;20.746;2022-07-04T04:50:24;100617.00;;;25.36
69545;BMP180;56766;52.260;20.746;2022-07-04T04:52:51;100607.00;;;25.68
69545;BMP180;56766;52.260;20.746;2022-07-04T04:55:18;100606.00;;;25.80
69545;BMP180;56766;52.260;20.746;2022-07-04T04:57:44;100610.80;;;26.00
69545;BMP180;56766;52.260;20.746;2022-07-04T05:00:11;100606.40;;;26.20
69545;BMP180;56766;52.260;20.746;2022-07-04T05:02:38;100608.80;;;26.30
69545;BMP180;56766;52.260;20.746;2022-07-04T05:05:06;100611.40;;;26.40
69545;BMP180;56766;52.260;20.746;2022-07-04T05:07:33;100614.00;;;26.40
69545;BMP180;56766;52.260;20.746;2022-07-04T05:10:01;100613.00;;;26.40
69545;BMP180;56766;52.260;20.746;2022-07-04T05:12:28;100614.60;;;26.50
69545;BMP180;56766;52.260;20.746;2022-07-04T05:14:55;100610.80;;;26.60
69545;BMP180;56766;52.260;20.746;2022-07-04T05:17:22;100607.40;;;26.60
69545;BMP180;56766;52.260;20.746;2022-07-04T05:19:50;100614.40;;;26.70
69545;BMP180;56766;52.260;20.746;2022-07-04T05:22:17;100615.20;;;26.72
69545;BMP180;56766;52.260;20.746;2022-07-04T05:24:44;100619.60;;;26.88
69545;BMP180;56766;52.260;20.746;2022-07-04T05:27:11;100616.60;;;26.90
69545;BMP180;56766;52.260;20.746;2022-07-04T05:29:37;100619.00;;;27.00
69545;BMP180;56766;52.260;20.746;2022-07-04T05:32:05;100626.00;;;26.90
69545;BMP180;56766;52.260;20.746;2022-07-04T05:34:32;100627.60;;;26.80
69545;BMP180;56766;52.260;20.746;2022-07-04T05:36:59;100628.20;;;26.72
69545;BMP180;56766;52.260;20.746;2022-07-04T05:39:26;100628.80;;;26.70
69545;BMP180;56766;52.260;20.746;2022-07-04T05:41:52;100626.60;;;26.60
69545;BMP180;56766;52.260;20.746;2022-07-04T05:44:19;100629.40;;;26.50
69545;BMP180;56766;52.260;20.746;2022-07-04T05:46:46;100634.00;;;26.50
69545;BMP180;56766;52.260;20.746;2022-07-04T05:49:13;100631.60;;;26.50
69545;BMP180;56766;52.260;20.746;2022-07-04T05:51:40;100626.40;;;26.50
69545;BMP180;56766;52.260;20.746;2022-07-04T05:54:06;100627.60;;;26.40
69545;BMP180;56766;52.260;20.746;2022-07-04T05:56:33;100627.40;;;26.40
69545;BMP180;56766;52.260;20.746;2022-07-04T05:58:59;100631.00;;;26.40
69545;BMP180;56766;52.260;20.746;2022-07-04T06:01:26;100631.20;;;26.40
69545;BMP180;56766;52.260;20.746;2022-07-04T06:03:53;100629.20;;;26.40
69545;BMP180;56766;52.260;20.746;2022-07-04T06:06:19;100628.00;;;26.40
69545;BMP180;56766;52.260;20.746;2022-07-04T06:08:46;100628.40;;;26.40
69545;BMP180;56766;52.260;20.746;2022-07-04T06:11:12;100630.20;;;26.30
69545;BMP180;56766;52.260;20.746;2022-07-04T06:13:40;100627.60;;;26.30
69545;BMP180;56766;52.260;20.746;2022-07-04T06:16:07;100626.00;;;26.30
69545;BMP180;56766;52.260;20.746;2022-07-04T06:18:34;100622.40;;;26.30
69545;BMP180;56766;52.260;20.746;2022-07-04T06:21:00;100620.00;;;26.30
69545;BMP180;56766;52.260;20.746;2022-07-04T06:23:27;100617.00;;;26.30
69545;BMP180;56766;52.260;20.746;2022-07-04T06:25:54;100611.40;;;26.20
69545;BMP180;56766;52.260;20.746;2022-07-04T06:28:21;100605.80;;;26.20
69545;BMP180;56766;52.260;20.746;2022-07-04T06:30:47;100602.40;;;26.14
69545;BMP180;56766;52.260;20.746;2022-07-04T06:33:14;100598.40;;;26.10
69545;BMP180;56766;52.260;20.746;2022-07-04T06:35:40;100597.00;;;26.10
69545;BMP180;56766;52.260;20.746;2022-07-04T06:38:26;100597.20;;;26.10
69545;BMP180;56766;52.260;20.746;2022-07-04T06:40:57;100591.80;;;26.10
69545;BMP180;56766;52.260;20.746;2022-07-04T06:43:25;100587.00;;;26.10
69545;BMP180;56766;52.260;20.746;2022-07-04T06:45:52;100584.20;;;26.00
69545;BMP180;56766;52.260;20.746;2022-07-04T06:48:19;100596.00;;;26.00
69545;BMP180;56766;52.260;20.746;2022-07-04T06:50:47;100597.20;;;26.00
69545;BMP180;56766;52.260;20.746;2022-07-04T06:53:14;100586.20;;;25.92
69545;BMP180;56766;52.260;20.746;2022-07-04T06:55:42;100587.40;;;25.90
69545;BMP180;56766;52.260;20.746;2022-07-04T06:58:10;100591.00;;;25.80
69545;BMP180;56766;52.260;20.746;2022-07-04T07:00:38;100586.80;;;25.80
69545;BMP180;56766;52.260;20.746;2022-07-04T07:03:05;100591.00;;;25.70
69545;BMP180;56766;52.260;20.746;2022-07-04T07:05:32;100591.80;;;25.68
69545;BMP180;56766;52.260;20.746;2022-07-04T07:07:58;100589.80;;;25.70
69545;BMP180;56766;52.260;20.746;2022-07-04T07:10:25;100591.00;;;25.70
69545;BMP180;56766;52.260;20.746;2022-07-04T07:12:52;100591.60;;;25.70
69545;BMP180;56766;52.260;20.746;2022-07-04T07:15:18;100589.60;;;25.80
69545;BMP180;56766;52.260;20.746;2022-07-04T07:17:46;100591.80;;;25.80
69545;BMP180;56766;52.260;20.746;2022-07-04T07:20:13;100593.00;;;25.88
69545;BMP180;56766;52.260;20.746;2022-07-04T07:22:40;100597.60;;;25.90
69545;BMP180;56766;52.260;20.746;2022-07-04T07:25:10;100589.80;;;25.90
69545;BMP180;56766;52.260;20.746;2022-07-04T07:27:39;100590.00;;;26.00
69545;BMP180;56766;52.260;20.746;2022-07-04T07:30:06;100589.20;;;26.00
69545;BMP180;56766;52.260;20.746;2022-07-04T07:32:33;100587.00;;;26.00
69545;BMP180;56766;52.260;20.746;2022-07-04T07:35:00;100594.20;;;26.04
69545;BMP180;56766;52.260;20.746;2022-07-04T07:37:27;100597.60;;;26.20
69545;BMP180;56766;52.260;20.746;2022-07-04T07:39:55;100600.20;;;26.30
69545;BMP180;56766;52.260;20.746;2022-07-04T07:42:24;100597.00;;;26.42
69545;BMP180;56766;52.260;20.746;2022-07-04T07:44:52;100593.20;;;26.50
69545;BMP180;56766;52.260;20.746;2022-07-04T07:47:19;100594.20;;;26.50
69545;BMP180;56766;52.260;20.746;2022-07-04T07:49:46;100592.20;;;26.60
69545;BMP180;56766;52.260;20.746;2022-07-04T07:52:14;100592.80;;;26.70
69545;BMP180;56766;52.260;20.746;2022-07-04T07:54:42;100598.00;;;26.80
69545;BMP180;56766;52.260;20.746;2022-07-04T07:57:08;100596.80;;;26.92
69545;BMP180;56766;52.260;20.746;2022-07-04T07:59:35;100598.60;;;27.00
69545;BMP180;56766;52.260;20.746;2022-07-04T08:02:02;100600.40;;;27.08
69545;BMP180;56766;52.260;20.746;2022-07-04T08:04:29;100592.40;;;27.10
69545;BMP180;56766;52.260;20.746;2022-07-04T08:07:05;100594.40;;;27.00
69545;BMP180;56766;52.260;20.746;2022-07-04T08:09:34;100593.40;;;27.08
69545;BMP180;56766;52.260;20.746;2022-07-04T08:12:04;100595.00;;;27.22
69545;BMP180;56766;52.260;20.746;2022-07-04T08:14:33;100586.80;;;27.48
69545;BMP180;56766;52.260;20.746;2022-07-04T08:17:01;100597.40;;;27.70
69545;BMP180;56766;52.260;20.746;2022-07-04T08:19:28;100594.40;;;27.90
69545;BMP180;56766;52.260;20.746;2022-07-04T08:21:55;100582.20;;;28.10
69545;BMP180;56766;52.260;20.746;2022-07-04T08:24:21;100579.60;;;28.20
69545;BMP180;56766;52.260;20.746;2022-07-04T08:26:48;100582.00;;;28.40
69545;BMP180;56766;52.260;20.746;2022-07-04T08:29:15;100578.40;;;28.50
69545;BMP180;56766;52.260;20.746;2022-07-04T08:31:42;100578.20;;;28.50
69545;BMP180;56766;52.260;20.746;2022-07-04T08:34:08;100581.20;;;28.58
69545;BMP180;56766;52.260;20.746;2022-07-04T08:36:35;100588.40;;;28.80
69545;BMP180;56766;52.260;20.746;2022-07-04T08:39:02;100584.40;;;28.90
69545;BMP180;56766;52.260;20.746;2022-07-04T08:41:38;100581.00;;;29.00
69545;BMP180;56766;52.260;20.746;2022-07-04T08:44:08;100584.20;;;29.20
69545;BMP180;56766;52.260;20.746;2022-07-04T08:46:41;100574.80;;;29.20
69545;BMP180;56766;52.260;20.746;2022-07-04T08:49:22;100580.80;;;29.30
69545;BMP180;56766;52.260;20.746;2022-07-04T08:51:59;100586.60;;;29.50
69545;BMP180;56766;52.260;20.746;2022-07-04T08:54:27;100583.20;;;29.70
69545;BMP180;56766;52.260;20.746;2022-07-04T08:57:16;100581.20;;;29.94
69545;BMP180;56766;52.260;20.746;2022-07-04T09:00:05;100579.80;;;30.10
69545;BMP180;56766;52.260;20.746;2022-07-04T09:02:34;100579.00;;;30.26
69545;BMP180;56766;52.260;20.746;2022-07-04T09:05:04;100570.80;;;30.32
69545;BMP180;56766;52.260;20.746;2022-07-04T09:07:32;100571.60;;;30.20
69545;BMP180;56766;52.260;20.746;2022-07-04T09:10:02;100574.80;;;30.20
69545;BMP180;56766;52.260;20.746;2022-07-04T09:12:29;100572.20;;;30.30
69545;BMP180;56766;52.260;20.746;2022-07-04T09:14:56;100569.60;;;30.10
69545;BMP180;56766;52.260;20.746;2022-07-04T09:17:24;100582.00;;;29.90
69545;BMP180;56766;52.260;20.746;2022-07-04T09:22:37;100584.80;;;30.30
69545;BMP180;56766;52.260;20.746;2022-07-04T09:25:05;100586.60;;;30.30
69545;BMP180;56766;52.260;20.746;2022-07-04T09:27:39;100595.80;;;30.20
69545;BMP180;56766;52.260;20.746;2022-07-04T09:30:08;100596.00;;;30.30
69545;BMP180;56766;52.260;20.746;2022-07-04T09:35:12;100599.60;;;30.60
69545;BMP180;56766;52.260;20.746;2022-07-04T09:37:46;100595.20;;;30.70
69545;BMP180;56766;52.260;20.746;2022-07-04T09:40:35;100601.20;;;30.78
69545;BMP180;56766;52.260;20.746;2022-07-04T09:43:21;100599.40;;;30.70
69545;BMP180;56766;52.260;20.746;2022-07-04T09:46:00;100597.80;;;30.84
69545;BMP180;56766;52.260;20.746;2022-07-04T09:48:48;100598.40;;;30.98
69545;BMP180;56766;52.260;20.746;2022-07-04T09:54:27;100596.60;;;31.02
69545;BMP180;56766;52.260;20.746;2022-07-04T09:57:03;100603.20;;;31.00
69545;BMP180;56766;52.260;20.746;2022-07-04T09:59:31;100603.20;;;31.00
69545;BMP180;56766;52.260;20.746;2022-07-04T10:02:10;100599.20;;;31.10
69545;BMP180;56766;52.260;20.746;2022-07-04T10:04:51;100596.00;;;31.26
69545;BMP180;56766;52.260;20.746;2022-07-04T10:07:39;100596.60;;;31.30
69545;BMP180;56766;52.260;20.746;2022-07-04T10:10:40;100593.60;;;31.38
69545;BMP180;56766;52.260;20.746;2022-07-04T10:13:10;100594.60;;;31.40
69545;BMP180;56766;52.260;20.746;2022-07-04T10:18:27;100587.20;;;31.60
69545;BMP180;56766;52.260;20.746;2022-07-04T10:20:56;100586.00;;;31.60
69545;BMP180;56766;52.260;20.746;2022-07-04T10:23:25;100584.00;;;31.62
69545;BMP180;56766;52.260;20.746;2022-07-04T10:25:58;100583.40;;;31.72
69545;BMP180;56766;52.260;20.746;2022-07-04T10:28:26;100592.80;;;31.90
69545;BMP180;56766;52.260;20.746;2022-07-04T10:30:57;100591.80;;;32.00
69545;BMP180;56766;52.260;20.746;2022-07-04T10:33:28;100592.40;;;32.00
69545;BMP180;56766;52.260;20.746;2022-07-04T10:36:03;100601.60;;;32.10
69545;BMP180;56766;52.260;20.746;2022-07-04T10:38:47;100599.40;;;32.30
69545;BMP180;56766;52.260;20.746;2022-07-04T10:41:16;100589.20;;;32.50
69545;BMP180;56766;52.260;20.746;2022-07-04T10:51:39;100575.40;;;33.00
69545;BMP180;56766;52.260;20.746;2022-07-04T10:54:33;100581.40;;;33.06
69545;BMP180;56766;52.260;20.746;2022-07-04T10:57:19;100587.60;;;33.10
69545;BMP180;56766;52.260;20.746;2022-07-04T11:02:32;100587.00;;;33.20
69545;BMP180;56766;52.260;20.746;2022-07-04T11:05:12;100582.60;;;33.20
69545;BMP180;56766;52.260;20.746;2022-07-04T11:18:02;100578.20;;;32.60
69545;BMP180;56766;52.260;20.746;2022-07-04T11:20:34;100578.60;;;32.60
69545;BMP180;56766;52.260;20.746;2022-07-04T11:23:18;100579.40;;;32.60
69545;BMP180;56766;52.260;20.746;2022-07-04T11:25:49;100574.80;;;32.68
69545;BMP180;56766;52.260;20.746;2022-07-04T11:28:29;100570.20;;;32.70
69545;BMP180;56766;52.260;20.746;2022-07-04T11:30:59;100566.60;;;32.80
69545;BMP180;56766;52.260;20.746;2022-07-04T11:33:33;100567.00;;;32.90
69545;BMP180;56766;52.260;20.746;2022-07-04T11:36:18;100561.40;;;32.90
69545;BMP180;56766;52.260;20.746;2022-07-04T11:41:29;100561.00;;;33.00
69545;BMP180;56766;52.260;20.746;2022-07-04T11:44:18;100561.80;;;33.00
69545;BMP180;56766;52.260;20.746;2022-07-04T11:47:11;100557.00;;;33.10
69545;BMP180;56766;52.260;20.746;2022-07-04T11:52:23;100545.20;;;33.28
69545;BMP180;56766;52.260;20.746;2022-07-04T11:54:53;100542.80;;;33.30
69545;BMP180;56766;52.260;20.746;2022-07-04T11:57:27;100538.00;;;33.30
69545;BMP180;56766;52.260;20.746;2022-07-04T12:00:08;100525.20;;;33.20
69545;BMP180;56766;52.260;20.746;2022-07-04T12:02:38;100526.80;;;33.00
69545;BMP180;56766;52.260;20.746;2022-07-04T12:05:11;100534.00;;;33.00
69545;BMP180;56766;52.260;20.746;2022-07-04T12:07:42;100542.60;;;33.00
69545;BMP180;56766;52.260;20.746;2022-07-04T12:10:21;100542.80;;;33.00
69545;BMP180;56766;52.260;20.746;2022-07-04T12:13:07;100542.40;;;32.90
69545;BMP180;56766;52.260;20.746;2022-07-04T12:15:46;100535.60;;;32.88
69545;BMP180;56766;52.260;20.746;2022-07-04T12:18:26;100532.60;;;32.80
69545;BMP180;56766;52.260;20.746;2022-07-04T12:21:16;100536.20;;;32.70
69545;BMP180;56766;52.260;20.746;2022-07-04T12:23:53;100540.80;;;32.50
69545;BMP180;56766;52.260;20.746;2022-07-04T12:26:20;100548.60;;;32.30
69545;BMP180;56766;52.260;20.746;2022-07-04T12:28:47;100549.80;;;32.20
69545;BMP180;56766;52.260;20.746;2022-07-04T12:31:14;100543.80;;;32.20
69545;BMP180;56766;52.260;20.746;2022-07-04T12:33:54;100543.00;;;32.10
69545;BMP180;56766;52.260;20.746;2022-07-04T12:36:24;100547.40;;;32.12
69545;BMP180;56766;52.260;20.746;2022-07-04T12:38:50;100548.80;;;32.10
69545;BMP180;56766;52.260;20.746;2022-07-04T12:41:17;100546.20;;;32.10
69545;BMP180;56766;52.260;20.746;2022-07-04T12:43:49;100546.20;;;32.08
69545;BMP180;56766;52.260;20.746;2022-07-04T12:48:52;100540.00;;;31.84
69545;BMP180;56766;52.260;20.746;2022-07-04T12:51:26;100542.40;;;31.70
69545;BMP180;56766;52.260;20.746;2022-07-04T12:53:56;100550.40;;;31.70
69545;BMP180;56766;52.260;20.746;2022-07-04T12:59:05;100540.80;;;32.00
69545;BMP180;56766;52.260;20.746;2022-07-04T13:01:32;100537.40;;;31.92
69545;BMP180;56766;52.260;20.746;2022-07-04T13:04:00;100533.60;;;32.00
69545;BMP180;56766;52.260;20.746;2022-07-04T13:06:27;100524.40;;;32.10
69545;BMP180;56766;52.260;20.746;2022-07-04T13:08:56;100524.80;;;32.14
69545;BMP180;56766;52.260;20.746;2022-07-04T13:11:24;100528.20;;;32.20
69545;BMP180;56766;52.260;20.746;2022-07-04T13:14:10;100516.20;;;32.20
69545;BMP180;56766;52.260;20.746;2022-07-04T13:16:36;100516.60;;;32.10
69545;BMP180;56766;52.260;20.746;2022-07-04T13:19:03;100514.00;;;32.10
69545;BMP180;56766;52.260;20.746;2022-07-04T13:21:30;100513.80;;;32.00
69545;BMP180;56766;52.260;20.746;2022-07-04T13:23:57;100514.60;;;31.90
69545;BMP180;56766;52.260;20.746;2022-07-04T13:26:23;100514.40;;;31.80
69545;BMP180;56766;52.260;20.746;2022-07-04T13:28:51;100517.20;;;31.80
69545;BMP180;56766;52.260;20.746;2022-07-04T13:31:18;100522.60;;;31.90
69545;BMP180;56766;52.260;20.746;2022-07-04T13:33:45;100531.00;;;31.90
69545;BMP180;56766;52.260;20.746;2022-07-04T13:36:11;100526.80;;;31.96
69545;BMP180;56766;52.260;20.746;2022-07-04T13:38:40;100525.20;;;32.00
69545;BMP180;56766;52.260;20.746;2022-07-04T13:41:07;100525.00;;;32.00
69545;BMP180;56766;52.260;20.746;2022-07-04T13:43:34;100527.00;;;31.90
69545;BMP180;56766;52.260;20.746;2022-07-04T13:46:01;100530.20;;;31.70
69545;BMP180;56766;52.260;20.746;2022-07-04T13:48:27;100535.20;;;31.70
69545;BMP180;56766;52.260;20.746;2022-07-04T13:50:54;100538.40;;;31.62
69545;BMP180;56766;52.260;20.746;2022-07-04T13:53:23;100535.20;;;31.50
69545;BMP180;56766;52.260;20.746;2022-07-04T13:55:49;100541.80;;;31.30
69545;BMP180;56766;52.260;20.746;2022-07-04T13:58:17;100546.40;;;31.30
69545;BMP180;56766;52.260;20.746;2022-07-04T14:00:44;100547.60;;;31.50
69545;BMP180;56766;52.260;20.746;2022-07-04T14:03:13;100549.20;;;31.70
69545;BMP180;56766;52.260;20.746;2022-07-04T14:05:44;100538.60;;;31.80
69545;BMP180;56766;52.260;20.746;2022-07-04T14:08:10;100530.80;;;31.84
69545;BMP180;56766;52.260;20.746;2022-07-04T14:10:37;100522.20;;;31.80
69545;BMP180;56766;52.260;20.746;2022-07-04T14:13:04;100519.40;;;31.80
69545;BMP180;56766;52.260;20.746;2022-07-04T14:15:30;100523.40;;;31.76
69545;BMP180;56766;52.260;20.746;2022-07-04T14:17:57;100522.20;;;31.78
69545;BMP180;56766;52.260;20.746;2022-07-04T14:20:24;100517.20;;;31.70
69545;BMP180;56766;52.260;20.746;2022-07-04T14:22:50;100511.60;;;31.50
69545;BMP180;56766;52.260;20.746;2022-07-04T14:25:17;100515.00;;;31.30
69545;BMP180;56766;52.260;20.746;2022-07-04T14:27:44;100513.20;;;31.28
69545;BMP180;56766;52.260;20.746;2022-07-04T14:30:11;100512.60;;;31.30
69545;BMP180;56766;52.260;20.746;2022-07-04T14:32:37;100508.00;;;31.30
69545;BMP180;56766;52.260;20.746;2022-07-04T14:35:04;100505.60;;;31.30
69545;BMP180;56766;52.260;20.746;2022-07-04T14:37:31;100500.40;;;31.30
69545;BMP180;56766;52.260;20.746;2022-07-04T14:39:58;100502.20;;;31.10